Time;durP1;ratioP1;P1;durP2;ratioP2;P2;SDS_P1;SDS_P2;PMS_P1;PMS_P2;Temp;Humidity;BMP_temperature;BMP_pressure;BME280_temperature;BME280_humidity;BME280_pressure;Samples;Min_cycle;Max_cycle;Signal;HPM_P1;HPM_P2
2022/06/19 00:01:08;;;;;;;6.10;3.63;;;24.50;54.90;;;;;;5071070;28;20530;-70
2022/06/19 00:03:42;;;;;;;4.20;3.60;;;24.50;54.90;;;;;;5071288;28;20395;-70
2022/06/19 00:06:09;;;;;;;4.72;3.88;;;24.50;54.90;;;;;;5071344;28;20394;-69
2022/06/19 00:08:35;;;;;;;4.70;3.50;;;24.50;54.90;;;;;;5071200;28;20392;-70
2022/06/19 00:11:01;;;;;;;4.40;3.60;;;24.50;54.90;;;;;;5070685;28;20406;-70
2022/06/19 00:13:27;;;;;;;4.72;3.75;;;24.50;54.90;;;;;;5071031;28;20499;-69
2022/06/19 00:15:54;;;;;;;4.32;3.65;;;24.50;54.90;;;;;;5053499;28;20463;-70
2022/06/19 00:18:20;;;;;;;4.70;3.88;;;24.50;54.90;;;;;;5071025;28;20387;-69
2022/06/19 00:20:45;;;;;;;4.63;3.83;;;24.50;54.90;;;;;;5070718;28;20718;-66
2022/06/19 00:23:11;;;;;;;4.80;3.80;;;24.40;54.80;;;;;;5057203;28;20392;-70
2022/06/19 00:25:37;;;;;;;5.32;4.20;;;24.40;54.80;;;;;;5075118;28;20415;-70
2022/06/19 00:28:04;;;;;;;4.22;3.58;;;24.40;54.80;;;;;;5075025;28;20384;-69
2022/06/19 00:30:30;;;;;;;4.53;3.75;;;24.50;54.90;;;;;;5074928;28;20739;-70
2022/06/19 00:32:57;;;;;;;5.30;3.63;;;24.40;54.90;;;;;;5074583;28;20782;-70
2022/06/19 00:35:26;;;;;;;4.22;3.75;;;24.50;54.90;;;;;;5074900;28;20931;-70
2022/06/19 00:37:52;;;;;;;4.55;3.80;;;24.40;54.80;;;;;;5074913;28;20886;-70
2022/06/19 00:40:18;;;;;;;4.70;3.83;;;24.40;54.80;;;;;;5074846;28;20541;-70
2022/06/19 00:42:44;;;;;;;4.68;3.58;;;24.40;55.40;;;;;;5074564;28;20422;-69
2022/06/19 00:45:40;;;;;;;5.17;3.97;;;24.40;54.80;;;;;;5056594;28;20420;-69
2022/06/19 00:48:43;;;;;;;4.70;4.10;;;24.40;54.80;;;;;;5074785;28;20372;-70
2022/06/19 00:51:10;;;;;;;5.10;4.05;;;24.40;54.80;;;;;;5071166;28;20400;-70
2022/06/19 00:53:41;;;;;;;5.03;3.75;;;24.40;54.80;;;;;;5074600;28;20433;-70
2022/06/19 00:56:11;;;;;;;5.05;4.28;;;24.40;54.70;;;;;;5074595;28;20744;-69
2022/06/19 00:58:40;;;;;;;5.30;3.83;;;24.40;54.70;;;;;;5074424;28;20498;-69
2022/06/19 01:01:10;;;;;;;5.95;3.97;;;24.40;54.80;;;;;;5055948;28;20495;-69
2022/06/19 01:03:52;;;;;;;4.93;4.00;;;24.40;54.70;;;;;;5056523;28;20394;-69
2022/06/19 01:06:20;;;;;;;5.10;4.00;;;24.40;54.60;;;;;;5056500;28;20422;-70
2022/06/19 01:08:47;;;;;;;5.70;3.97;;;24.40;54.70;;;;;;5074003;28;20391;-69
2022/06/19 01:11:14;;;;;;;5.67;3.87;;;24.40;54.70;;;;;;5074013;28;20482;-70
2022/06/19 01:13:40;;;;;;;5.45;4.20;;;24.40;54.70;;;;;;5074050;28;20467;-70
2022/06/19 01:16:08;;;;;;;5.68;4.10;;;24.40;54.70;;;;;;5074257;28;20939;-70
2022/06/19 01:18:35;;;;;;;5.45;4.07;;;24.40;54.80;;;;;;5074038;28;20404;-69
2022/06/19 01:21:16;;;;;;;5.28;3.92;;;24.40;54.70;;;;;;5073657;28;20395;-70
2022/06/19 01:23:56;;;;;;;6.25;4.28;;;24.40;54.70;;;;;;5074081;28;20863;-70
2022/06/19 01:26:22;;;;;;;5.45;3.90;;;24.40;54.70;;;;;;5073847;28;20887;-70
2022/06/19 01:28:57;;;;;;;6.07;4.00;;;24.40;54.70;;;;;;5073696;28;20548;-69
2022/06/19 01:31:30;;;;;;;5.65;4.00;;;24.40;54.70;;;;;;5073908;28;20532;-70
2022/06/19 01:34:26;;;;;;;6.72;4.15;;;24.40;54.70;;;;;;5055180;28;20744;-70
2022/06/19 01:36:49;;;;;;;6.15;4.25;;;24.40;54.70;;;;;;5073375;28;20950;-69
2022/06/19 01:39:16;;;;;;;6.00;4.07;;;24.40;54.70;;;;;;5073734;28;20506;-70
2022/06/19 01:41:41;;;;;;;5.22;4.20;;;24.40;54.70;;;;;;5073750;28;20442;-70
2022/06/19 01:44:07;;;;;;;5.47;4.20;;;24.40;54.60;;;;;;5073656;28;20940;-69
2022/06/19 01:46:33;;;;;;;5.30;4.03;;;24.40;54.70;;;;;;5073562;28;20384;-70
2022/06/19 01:48:58;;;;;;;5.60;4.20;;;24.40;54.60;;;;;;5073096;28;20868;-70
2022/06/19 01:51:24;;;;;;;6.78;4.40;;;24.40;54.60;;;;;;5073497;28;20518;-70
2022/06/19 01:54:12;;;;;;;6.60;4.00;;;24.40;54.60;;;;;;5055408;28;20395;-70
2022/06/19 01:56:38;;;;;;;6.77;4.43;;;24.40;54.70;;;;;;5073459;28;20399;-71
2022/06/19 01:59:09;;;;;;;5.40;4.00;;;24.40;54.60;;;;;;5072804;28;20415;-70
2022/06/19 02:01:36;;;;;;;5.88;4.38;;;24.40;54.70;;;;;;5073311;28;20467;-69
2022/06/19 02:04:04;;;;;;;5.43;3.97;;;24.40;54.60;;;;;;5055491;28;20396;-69
2022/06/19 02:06:35;;;;;;;5.80;4.20;;;24.40;54.70;;;;;;5073275;28;20519;-70
2022/06/19 02:09:02;;;;;;;5.18;4.03;;;24.30;54.60;;;;;;5072784;28;20397;-69
2022/06/19 02:11:31;;;;;;;5.45;4.50;;;24.40;54.60;;;;;;5073119;28;20467;-70
2022/06/19 02:13:58;;;;;;;5.85;4.07;;;24.40;54.60;;;;;;5072932;28;20416;-70
2022/06/19 02:16:24;;;;;;;4.85;4.13;;;24.30;54.60;;;;;;5055161;28;20400;-70
2022/06/19 02:18:52;;;;;;;5.07;3.92;;;24.40;54.60;;;;;;5054759;28;20465;-68
2022/06/19 02:21:36;;;;;;;5.50;4.10;;;24.30;54.50;;;;;;5072891;28;20391;-69
2022/06/19 02:24:03;;;;;;;6.07;4.00;;;24.30;54.50;;;;;;5072961;28;20401;-70
2022/06/19 02:26:29;;;;;;;5.80;4.10;;;24.30;54.50;;;;;;5072899;28;20410;-69
2022/06/19 02:28:55;;;;;;;5.65;4.20;;;24.30;54.50;;;;;;5072328;28;20878;-69
2022/06/19 02:31:22;;;;;;;5.45;3.95;;;24.30;54.50;;;;;;5072536;28;20423;-70
2022/06/19 02:33:53;;;;;;;5.38;4.40;;;24.30;54.50;;;;;;5072782;28;20457;-69
2022/06/19 02:36:37;;;;;;;5.57;4.10;;;24.30;54.50;;;;;;5072622;28;20388;-69
2022/06/19 02:39:40;;;;;;;5.72;4.35;;;24.30;54.50;;;;;;5072096;28;20426;-70
2022/06/19 02:42:21;;;;;;;5.65;4.20;;;24.30;54.40;;;;;;5054564;28;20896;-70
2022/06/19 02:44:55;;;;;;;5.65;4.25;;;24.30;55.10;;;;;;5071547;28;20463;-70
2022/06/19 02:47:22;;;;;;;5.65;4.30;;;24.30;54.40;;;;;;5072439;28;20418;-70
2022/06/19 02:49:48;;;;;;;5.85;4.30;;;24.30;54.40;;;;;;5072347;28;20389;-69
2022/06/19 02:52:14;;;;;;;5.90;4.20;;;24.30;54.40;;;;;;5072431;28;20395;-69
2022/06/19 02:54:40;;;;;;;5.93;4.20;;;24.30;54.40;;;;;;5072258;28;20466;-70
2022/06/19 02:57:08;;;;;;;5.95;4.00;;;24.30;54.40;;;;;;5071800;28;20395;-70
2022/06/19 02:59:35;;;;;;;5.40;3.90;;;24.30;54.40;;;;;;5072148;28;20415;-70
2022/06/19 03:02:00;;;;;;;6.47;4.30;;;24.30;54.40;;;;;;5072152;28;20433;-70
2022/06/19 03:04:32;;;;;;;6.97;4.15;;;24.30;54.40;;;;;;5072043;28;20400;-70
2022/06/19 03:06:58;;;;;;;6.30;4.13;;;24.30;54.40;;;;;;5071651;28;20867;-69
2022/06/19 03:09:23;;;;;;;6.47;4.10;;;24.30;54.30;;;;;;5071910;28;20400;-69
2022/06/19 03:11:50;;;;;;;5.72;3.70;;;24.30;54.30;;;;;;5072068;28;20387;-70
2022/06/19 03:14:16;;;;;;;6.43;4.07;;;24.30;54.30;;;;;;5071807;28;20422;-69
2022/06/19 03:16:42;;;;;;;5.97;4.03;;;24.30;54.30;;;;;;5071949;28;20383;-69
2022/06/19 03:19:07;;;;;;;5.78;4.10;;;24.30;54.30;;;;;;5071266;28;20415;-70
2022/06/19 03:21:33;;;;;;;5.23;3.90;;;24.30;54.30;;;;;;5071829;28;20490;-70
2022/06/19 03:23:59;;;;;;;6.47;4.00;;;24.30;54.30;;;;;;5071820;28;20855;-67
2022/06/19 03:26:26;;;;;;;7.37;4.10;;;24.20;54.20;;;;;;5071706;28;20391;-70
2022/06/19 03:28:53;;;;;;;6.53;3.90;;;24.30;54.30;;;;;;5071731;28;20878;-69
2022/06/19 03:31:23;;;;;;;6.60;4.07;;;24.30;54.30;;;;;;5071525;28;20388;-69
2022/06/19 03:33:50;;;;;;;6.57;3.95;;;24.30;54.30;;;;;;5053769;28;20388;-70
2022/06/19 03:36:16;;;;;;;5.22;4.10;;;24.30;54.30;;;;;;5071645;28;20399;-68
2022/06/19 03:38:41;;;;;;;6.70;3.80;;;24.30;54.30;;;;;;5071503;28;20875;-69
2022/06/19 03:41:07;;;;;;;5.53;4.10;;;24.30;54.30;;;;;;5052904;28;20396;-70
2022/06/19 03:43:33;;;;;;;5.93;4.10;;;24.30;54.30;;;;;;5053209;28;20400;-69
2022/06/19 03:46:01;;;;;;;5.40;3.90;;;24.30;54.30;;;;;;5071471;28;20380;-69
2022/06/19 03:48:27;;;;;;;5.60;4.05;;;24.30;54.20;;;;;;5071427;28;20391;-69
2022/06/19 03:50:53;;;;;;;6.00;4.10;;;24.30;54.80;;;;;;5071423;28;20392;-70
2022/06/19 03:53:18;;;;;;;7.83;3.60;;;24.30;54.20;;;;;;5070775;28;20403;-70
2022/06/19 03:55:45;;;;;;;9.50;4.25;;;24.30;54.20;;;;;;5071081;28;20380;-70
2022/06/19 03:58:11;;;;;;;16.13;5.20;;;24.30;53.80;;;;;;5071408;28;20410;-70
2022/06/19 04:00:36;;;;;;;10.75;4.82;;;24.20;53.50;;;;;;5053425;28;20887;-70
2022/06/19 04:03:03;;;;;;;10.93;4.43;;;24.20;53.40;;;;;;5070920;28;20402;-69
2022/06/19 04:05:29;;;;;;;12.07;5.03;;;24.20;53.50;;;;;;5071314;28;20387;-69
2022/06/19 04:07:55;;;;;;;11.00;4.90;;;24.20;53.60;;;;;;5071411;28;20392;-69
2022/06/19 04:10:21;;;;;;;10.70;4.68;;;24.20;53.70;;;;;;5071304;28;20384;-69
2022/06/19 04:12:47;;;;;;;9.10;4.28;;;24.20;53.80;;;;;;5071300;28;20813;-69
2022/06/19 04:15:13;;;;;;;9.53;4.80;;;24.20;53.90;;;;;;5070598;28;20439;-70
2022/06/19 04:17:39;;;;;;;8.15;4.47;;;24.20;53.90;;;;;;5071229;28;20388;-70
2022/06/19 04:20:07;;;;;;;8.88;4.47;;;24.20;54.10;;;;;;5071110;28;20454;-70
2022/06/19 04:22:33;;;;;;;6.70;4.47;;;24.20;54.20;;;;;;5071201;28;20391;-70
2022/06/19 04:24:59;;;;;;;10.20;4.53;;;24.20;54.10;;;;;;5070906;28;20395;-70
2022/06/19 04:27:25;;;;;;;8.88;4.63;;;24.20;54.20;;;;;;5070962;28;20380;-70
2022/06/19 04:29:50;;;;;;;7.47;4.33;;;24.20;54.30;;;;;;5071275;28;20384;-70
2022/06/19 04:32:16;;;;;;;7.13;4.15;;;24.20;54.20;;;;;;5071042;28;20403;-70
2022/06/19 04:34:42;;;;;;;8.75;4.40;;;24.20;54.30;;;;;;5071039;28;20388;-70
2022/06/19 04:37:07;;;;;;;9.67;4.30;;;24.20;54.40;;;;;;5070596;28;20493;-69
2022/06/19 04:39:33;;;;;;;7.60;4.18;;;24.20;55.00;;;;;;5070891;28;20557;-70
2022/06/19 04:42:00;;;;;;;8.20;4.10;;;24.20;54.50;;;;;;5071014;28;20422;-70
2022/06/19 04:44:26;;;;;;;7.57;4.00;;;24.20;54.40;;;;;;5052962;28;20421;-69
2022/06/19 04:46:52;;;;;;;6.82;3.88;;;24.20;54.50;;;;;;5071018;28;20392;-67
2022/06/19 04:49:17;;;;;;;5.63;3.72;;;24.20;54.50;;;;;;5070477;28;20499;-69
2022/06/19 04:51:44;;;;;;;6.97;3.63;;;24.30;54.60;;;;;;5070984;28;20386;-70
2022/06/19 04:54:10;;;;;;;6.55;3.92;;;24.20;54.50;;;;;;5070982;28;20392;-70
2022/06/19 04:56:36;;;;;;;7.05;3.90;;;24.20;54.40;;;;;;5069872;28;20470;-70
2022/06/19 04:59:03;;;;;;;6.55;3.70;;;24.20;54.20;;;;;;5069101;28;20407;-64
2022/06/19 05:01:34;;;;;;;9.98;3.90;;;24.30;54.30;;;;;;5069543;28;20394;-70
2022/06/19 05:04:02;;;;;;;8.82;4.03;;;24.30;54.30;;;;;;5069554;28;20387;-69
2022/06/19 05:06:29;;;;;;;7.18;3.75;;;24.30;54.40;;;;;;5069314;28;20804;-69
2022/06/19 05:08:55;;;;;;;9.38;3.83;;;24.30;54.30;;;;;;5071197;28;20388;-69
2022/06/19 05:11:22;;;;;;;7.80;3.50;;;24.30;54.60;;;;;;5072589;28;20869;-69
2022/06/19 05:13:47;;;;;;;7.82;3.80;;;24.30;54.50;;;;;;5072753;28;20411;-69
2022/06/19 05:16:19;;;;;;;7.70;3.77;;;24.30;54.60;;;;;;5072964;28;20479;-66
2022/06/19 05:18:45;;;;;;;6.35;3.90;;;24.30;54.60;;;;;;5072756;28;20480;-69
2022/06/19 05:21:12;;;;;;;7.72;3.67;;;24.30;54.60;;;;;;5069833;28;20408;-67
2022/06/19 05:23:44;;;;;;;7.28;3.50;;;24.30;54.60;;;;;;5054836;28;20756;-69
2022/06/19 05:26:12;;;;;;;6.68;3.38;;;24.30;54.50;;;;;;5072704;28;20395;-70
2022/06/19 05:28:37;;;;;;;7.30;3.60;;;24.30;54.60;;;;;;5072664;28;20402;-69
2022/06/19 05:31:04;;;;;;;8.20;3.47;;;24.30;54.50;;;;;;5056014;28;20406;-69
2022/06/19 05:33:31;;;;;;;10.35;3.78;;;24.30;54.40;;;;;;5055962;28;20387;-69
2022/06/19 05:35:57;;;;;;;6.93;3.50;;;24.30;54.60;;;;;;5074004;28;20413;-69
2022/06/19 05:38:23;;;;;;;11.40;3.90;;;24.30;54.60;;;;;;5073629;28;20387;-69
2022/06/19 05:40:54;;;;;;;9.85;3.78;;;24.30;54.60;;;;;;5073802;28;20392;-69
2022/06/19 05:43:21;;;;;;;8.10;3.63;;;24.30;54.50;;;;;;5073201;28;20396;-69
2022/06/19 05:45:55;;;;;;;8.40;3.80;;;24.30;54.60;;;;;;5073670;28;20384;-69
2022/06/19 05:48:21;;;;;;;7.28;3.67;;;24.30;54.50;;;;;;5073752;28;20391;-69
2022/06/19 05:51:04;;;;;;;6.03;3.50;;;24.30;54.50;;;;;;5068873;28;20404;-69
2022/06/19 05:53:33;;;;;;;7.22;3.45;;;24.30;54.60;;;;;;5072490;28;20467;-69
2022/06/19 05:55:59;;;;;;;6.45;3.40;;;24.30;54.50;;;;;;5073607;28;20965;-69
2022/06/19 05:58:25;;;;;;;7.78;3.70;;;24.30;54.50;;;;;;5073313;28;20427;-69
2022/06/19 06:00:51;;;;;;;8.27;3.47;;;24.30;54.50;;;;;;5072655;28;20453;-69
2022/06/19 06:03:19;;;;;;;11.83;3.63;;;24.40;54.60;;;;;;5054902;28;20494;-69
2022/06/19 06:05:45;;;;;;;8.88;3.70;;;24.40;54.50;;;;;;5073492;28;20392;-70
2022/06/19 06:08:12;;;;;;;7.55;3.78;;;24.40;54.60;;;;;;5073350;28;20380;-69
2022/06/19 06:10:38;;;;;;;11.32;3.63;;;24.40;54.70;;;;;;5073270;28;20797;-70
2022/06/19 06:13:04;;;;;;;8.43;4.00;;;24.40;54.50;;;;;;5072776;28;20419;-69
2022/06/19 06:15:30;;;;;;;10.17;3.63;;;24.40;54.50;;;;;;5072533;28;20443;-70
2022/06/19 06:17:58;;;;;;;9.32;3.72;;;24.40;54.60;;;;;;5073089;28;20391;-70
2022/06/19 06:20:24;;;;;;;8.77;3.80;;;24.40;54.60;;;;;;5054954;28;20416;-69
2022/06/19 06:22:50;;;;;;;8.48;3.83;;;24.40;54.30;;;;;;5054938;28;20433;-71
2022/06/19 06:25:16;;;;;;;8.07;4.10;;;24.40;53.90;;;;;;5072464;28;20799;-70
2022/06/19 06:27:41;;;;;;;7.90;3.80;;;24.50;54.30;;;;;;5072979;28;20437;-69
2022/06/19 06:30:08;;;;;;;7.17;3.63;;;24.50;54.40;;;;;;5072940;28;20391;-67
2022/06/19 06:32:33;;;;;;;8.23;4.00;;;24.50;54.40;;;;;;5072932;28;21031;-69
2022/06/19 06:34:59;;;;;;;9.38;4.10;;;24.50;54.40;;;;;;5072815;28;20384;-69
2022/06/19 06:37:25;;;;;;;7.80;4.03;;;24.50;54.40;;;;;;5054299;28;20388;-69
2022/06/19 06:39:50;;;;;;;8.27;3.80;;;24.50;54.40;;;;;;5054741;28;21132;-69
2022/06/19 06:42:16;;;;;;;8.40;3.97;;;24.50;54.40;;;;;;5054711;28;20872;-70
2022/06/19 06:44:41;;;;;;;8.55;4.03;;;24.50;54.30;;;;;;5058529;28;20428;-70
2022/06/19 06:47:07;;;;;;;7.97;3.53;;;24.50;54.40;;;;;;5052264;28;21059;-69
2022/06/19 06:49:33;;;;;;;7.53;3.90;;;24.50;54.40;;;;;;5052276;28;20413;-70
2022/06/19 06:51:59;;;;;;;6.68;3.83;;;24.50;54.40;;;;;;5034626;28;20389;-69
2022/06/19 06:54:24;;;;;;;6.88;3.70;;;24.50;54.40;;;;;;5052114;28;20889;-70
2022/06/19 06:56:50;;;;;;;8.20;3.97;;;24.50;54.40;;;;;;5034503;28;20473;-69
2022/06/19 06:59:16;;;;;;;8.33;3.50;;;24.60;54.40;;;;;;5051820;28;20452;-69
2022/06/19 07:01:41;;;;;;;7.05;3.80;;;24.50;54.40;;;;;;5052203;28;20467;-70
2022/06/19 07:04:08;;;;;;;6.37;3.60;;;24.60;54.50;;;;;;5042359;28;20403;-69
2022/06/19 07:06:34;;;;;;;8.00;3.58;;;24.60;54.40;;;;;;5054542;28;20384;-70
2022/06/19 07:09:00;;;;;;;7.63;3.90;;;24.60;54.50;;;;;;5072001;28;20388;-69
2022/06/19 07:11:35;;;;;;;6.57;3.53;;;24.60;54.50;;;;;;5071660;28;20955;-71
2022/06/19 07:14:01;;;;;;;8.30;3.80;;;24.60;54.50;;;;;;5053866;28;20556;-70
2022/06/19 07:16:27;;;;;;;6.47;3.50;;;24.60;54.40;;;;;;5072020;28;20399;-70
2022/06/19 07:18:52;;;;;;;5.53;3.57;;;24.60;54.40;;;;;;5071920;28;20403;-70
2022/06/19 07:21:18;;;;;;;9.20;3.72;;;24.60;54.40;;;;;;5071446;28;20402;-70
2022/06/19 07:23:43;;;;;;;7.40;3.60;;;24.60;54.40;;;;;;5054051;28;20509;-70
2022/06/19 07:26:12;;;;;;;7.57;3.93;;;24.60;54.40;;;;;;5071837;28;20395;-70
2022/06/19 07:28:38;;;;;;;6.38;3.63;;;24.60;54.50;;;;;;5054185;28;20519;-70
2022/06/19 07:31:04;;;;;;;5.63;3.47;;;24.60;54.50;;;;;;5051227;28;20396;-69
2022/06/19 07:33:29;;;;;;;6.90;3.78;;;24.60;54.60;;;;;;5051471;28;20784;-70
2022/06/19 07:35:55;;;;;;;6.07;3.50;;;24.60;54.50;;;;;;5051821;28;20393;-70
2022/06/19 07:38:21;;;;;;;5.97;3.20;;;24.60;54.50;;;;;;5033740;28;20393;-70
2022/06/19 07:40:46;;;;;;;6.03;3.50;;;24.60;54.50;;;;;;5051693;28;20390;-70
2022/06/19 07:43:12;;;;;;;7.93;3.60;;;24.60;54.50;;;;;;5051300;28;20386;-67
2022/06/19 07:45:37;;;;;;;6.85;3.72;;;24.60;54.50;;;;;;5051570;28;20405;-70
2022/06/19 07:50:52;;;;;;;7.13;3.38;;;24.70;54.50;;;;;;5024840;28;20885;-70
2022/06/19 07:53:17;;;;;;;6.87;3.50;;;24.70;54.60;;;;;;5050965;28;20482;-69
2022/06/19 07:55:43;;;;;;;6.00;3.50;;;24.70;54.60;;;;;;5051502;28;20386;-69
2022/06/19 07:58:09;;;;;;;6.90;3.40;;;24.70;54.60;;;;;;5051402;28;20420;-70
2022/06/19 08:00:36;;;;;;;5.03;3.37;;;24.70;54.60;;;;;;5051358;28;20496;-70
2022/06/19 08:03:03;;;;;;;6.43;3.40;;;24.70;54.60;;;;;;5051496;28;20978;-69
2022/06/19 08:05:32;;;;;;;4.57;3.20;;;24.70;54.50;;;;;;5052975;28;20902;-69
2022/06/19 08:07:59;;;;;;;6.15;3.60;;;24.70;54.60;;;;;;5071344;28;20396;-69
2022/06/19 08:10:39;;;;;;;5.35;3.30;;;24.70;54.50;;;;;;5071441;28;20409;-70
2022/06/19 08:13:06;;;;;;;5.60;3.40;;;24.70;54.50;;;;;;5071257;28;20459;-70
2022/06/19 08:15:33;;;;;;;5.80;3.55;;;24.70;54.50;;;;;;5070933;28;20427;-70
2022/06/19 08:17:59;;;;;;;5.45;3.25;;;24.70;54.60;;;;;;5071230;28;20866;-70
2022/06/19 08:20:25;;;;;;;5.28;3.50;;;24.70;54.50;;;;;;5071185;28;20412;-69
2022/06/19 08:22:51;;;;;;;6.75;3.40;;;24.70;54.50;;;;;;5071413;28;20380;-70
2022/06/19 08:25:19;;;;;;;5.28;3.40;;;24.70;54.50;;;;;;5070749;28;20437;-69
2022/06/19 08:27:49;;;;;;;5.23;3.27;;;24.70;54.50;;;;;;5058255;28;20932;-69
2022/06/19 08:30:19;;;;;;;5.07;3.28;;;24.70;54.40;;;;;;5051167;28;20392;-70
2022/06/19 08:32:45;;;;;;;4.40;3.20;;;24.70;54.60;;;;;;5051156;28;20447;-69
2022/06/19 08:35:11;;;;;;;5.38;3.33;;;24.70;54.50;;;;;;5051047;28;20393;-64
2022/06/19 08:37:40;;;;;;;4.73;3.20;;;24.80;54.50;;;;;;5050828;28;20389;-69
2022/06/19 08:40:18;;;;;;;5.38;3.20;;;24.80;54.50;;;;;;5051057;28;20417;-69
2022/06/19 08:43:11;;;;;;;5.93;3.22;;;24.80;54.40;;;;;;5051005;28;20381;-69
2022/06/19 08:45:48;;;;;;;5.28;3.22;;;24.80;54.60;;;;;;5054677;28;20381;-69
2022/06/19 08:48:30;;;;;;;5.03;3.22;;;24.80;54.50;;;;;;5054847;28;20390;-69
2022/06/19 08:51:05;;;;;;;5.07;3.17;;;24.80;54.40;;;;;;5073468;28;20379;-70
2022/06/19 08:54:00;;;;;;;5.07;3.10;;;24.80;54.50;;;;;;5074248;28;20402;-70
2022/06/19 08:56:48;;;;;;;6.15;3.50;;;24.80;54.50;;;;;;5074744;28;20463;-70
2022/06/19 08:59:35;;;;;;;5.88;3.15;;;24.80;54.50;;;;;;5074438;28;20418;-69
2022/06/19 09:02:07;;;;;;;5.03;3.08;;;24.80;54.50;;;;;;5056695;28;20743;-69
2022/06/19 09:05:36;;;;;;;4.97;3.28;;;24.80;54.50;;;;;;5074608;28;20408;-69
2022/06/19 09:08:29;;;;;;;4.68;3.10;;;24.80;54.50;;;;;;5021643;28;20932;-70
2022/06/19 09:11:22;;;;;;;4.88;3.25;;;24.80;54.40;;;;;;5074456;28;20387;-70
2022/06/19 09:14:23;;;;;;;4.75;2.97;;;24.80;54.50;;;;;;5052983;28;20792;-69
2022/06/19 09:16:58;;;;;;;5.45;3.10;;;24.80;54.50;;;;;;5036438;28;20454;-69
2022/06/19 09:19:46;;;;;;;6.35;3.30;;;24.80;54.40;;;;;;5053795;28;20418;-70
2022/06/19 09:22:32;;;;;;;6.15;3.20;;;24.80;54.40;;;;;;5054100;28;20950;-69
2022/06/19 09:24:58;;;;;;;4.50;3.13;;;24.80;54.40;;;;;;5036254;28;20800;-69
2022/06/19 09:27:34;;;;;;;4.80;3.17;;;24.80;54.40;;;;;;5053668;28;20382;-69
2022/06/19 09:30:04;;;;;;;5.30;3.15;;;24.80;54.40;;;;;;5054144;28;20881;-69
2022/06/19 09:32:43;;;;;;;6.45;3.30;;;24.80;54.40;;;;;;5053987;28;20477;-70
2022/06/19 09:35:14;;;;;;;4.40;2.90;;;24.80;54.40;;;;;;5061860;28;20474;-70
2022/06/19 09:38:04;;;;;;;5.80;3.22;;;24.80;54.40;;;;;;5055470;28;20388;-70
2022/06/19 09:40:34;;;;;;;5.05;3.15;;;24.80;54.40;;;;;;5073779;28;20749;-70
2022/06/19 09:43:04;;;;;;;5.55;3.20;;;24.80;54.40;;;;;;5073958;28;20384;-70
2022/06/19 09:45:41;;;;;;;5.97;3.10;;;24.90;54.40;;;;;;5073346;28;20908;-69
2022/06/19 09:48:22;;;;;;;4.70;3.08;;;24.90;54.40;;;;;;5073828;28;20394;-70
2022/06/19 09:51:07;;;;;;;6.38;3.35;;;24.80;54.40;;;;;;5073773;28;20467;-70
2022/06/19 09:53:48;;;;;;;7.22;3.22;;;24.90;54.40;;;;;;5053018;28;20396;-69
2022/06/19 09:56:44;;;;;;;5.22;3.20;;;24.90;54.50;;;;;;5053699;28;20385;-70
2022/06/19 09:59:19;;;;;;;5.93;3.22;;;24.90;54.60;;;;;;5053447;28;20440;-69
2022/06/19 10:01:56;;;;;;;4.60;3.07;;;24.80;54.60;;;;;;5053344;28;20542;-69
2022/06/19 10:04:48;;;;;;;6.18;3.13;;;24.90;54.70;;;;;;5053521;28;20390;-69
2022/06/19 10:07:37;;;;;;;4.95;3.10;;;24.80;54.70;;;;;;5053515;28;20377;-70
2022/06/19 10:10:40;;;;;;;5.57;3.45;;;24.80;54.60;;;;;;5053403;28;20402;-69
2022/06/19 10:13:28;;;;;;;5.90;3.08;;;24.80;54.70;;;;;;5055753;28;20737;-70
2022/06/19 10:15:55;;;;;;;6.13;3.20;;;24.80;54.70;;;;;;5072763;28;20400;-70
2022/06/19 10:18:46;;;;;;;4.73;3.20;;;24.80;54.80;;;;;;5072533;28;20433;-70
2022/06/19 10:24:57;;;;;;;5.60;3.27;;;24.80;54.80;;;;;;4996128;28;20375;-70
2022/06/19 10:27:41;;;;;;;4.95;3.13;;;24.90;54.80;;;;;;5070011;28;20446;-69
2022/06/19 10:30:13;;;;;;;7.43;3.50;;;24.80;54.80;;;;;;5070908;28;20407;-70
2022/06/19 10:32:52;;;;;;;6.93;3.47;;;24.80;54.80;;;;;;5069827;28;20403;-70
2022/06/19 10:35:31;;;;;;;5.77;3.50;;;24.80;54.90;;;;;;5072429;28;20482;-66
2022/06/19 10:38:01;;;;;;;6.20;3.40;;;24.90;55.00;;;;;;5072367;28;20876;-70
2022/06/19 10:40:47;;;;;;;5.82;3.15;;;24.80;54.90;;;;;;5072719;28;20416;-70
2022/06/19 10:43:41;;;;;;;7.03;3.45;;;24.90;55.00;;;;;;5072452;28;20439;-69
2022/06/19 10:46:09;;;;;;;6.70;3.10;;;24.90;55.00;;;;;;5054737;28;20468;-69
2022/06/19 10:49:02;;;;;;;6.25;3.58;;;24.90;55.00;;;;;;5072505;28;20384;-70
2022/06/19 10:51:47;;;;;;;4.75;3.10;;;24.90;55.00;;;;;;5054167;28;20434;-71
2022/06/19 10:54:34;;;;;;;8.98;3.50;;;24.90;55.10;;;;;;5070093;28;20406;-70
2022/06/19 10:57:36;;;;;;;6.10;3.28;;;24.90;55.20;;;;;;5068893;28;20597;-70
2022/06/19 11:00:05;;;;;;;7.50;3.47;;;24.90;55.30;;;;;;5068585;28;20887;-69
2022/06/19 11:05:48;;;;;;;7.82;3.60;;;24.90;55.00;;;;;;5067529;28;20522;-69
2022/06/19 11:08:21;;;;;;;8.37;3.80;;;25.00;55.10;;;;;;5064408;28;20393;-69
2022/06/19 11:10:54;;;;;;;6.88;3.88;;;25.00;55.00;;;;;;5069791;28;20449;-65
2022/06/19 11:13:20;;;;;;;8.67;4.20;;;25.00;55.00;;;;;;5067569;28;20414;-70
2022/06/19 11:16:10;;;;;;;8.85;4.45;;;25.00;55.20;;;;;;5070537;28;20403;-69
2022/06/19 11:18:48;;;;;;;8.98;3.90;;;25.00;57.10;;;;;;5052272;28;20450;-71
2022/06/19 11:21:19;;;;;;;14.05;4.15;;;25.00;55.50;;;;;;5050243;28;20404;-66
2022/06/19 11:23:58;;;;;;;9.88;4.40;;;25.00;55.90;;;;;;5066965;28;20875;-65
2022/06/19 11:26:42;;;;;;;10.27;4.28;;;25.10;55.90;;;;;;5051577;28;20403;-69
2022/06/19 11:29:20;;;;;;;10.50;4.20;;;25.10;55.80;;;;;;5069225;28;20390;-65
2022/06/19 11:32:10;;;;;;;8.85;4.07;;;25.10;55.50;;;;;;5049012;28;20474;-64
2022/06/19 11:34:50;;;;;;;8.13;4.17;;;25.10;55.40;;;;;;5066798;28;20523;-68
2022/06/19 11:37:44;;;;;;;6.47;3.90;;;25.10;55.60;;;;;;5051217;28;20404;-69
2022/06/19 11:40:19;;;;;;;6.70;3.88;;;25.10;55.30;;;;;;5068076;28;20792;-66
2022/06/19 11:42:51;;;;;;;7.07;3.90;;;25.10;55.20;;;;;;5069437;28;20382;-65
2022/06/19 11:45:16;;;;;;;8.50;4.20;;;25.10;55.30;;;;;;5067184;28;20398;-65
2022/06/19 11:47:57;;;;;;;7.57;4.20;;;25.10;55.40;;;;;;5069894;28;20858;-69
2022/06/19 11:50:32;;;;;;;6.80;4.20;;;25.10;55.50;;;;;;5067879;28;20396;-67
2022/06/19 11:53:08;;;;;;;7.57;4.03;;;25.10;55.40;;;;;;5068678;28;20390;-70
2022/06/19 11:55:40;;;;;;;7.83;4.53;;;25.10;55.30;;;;;;5069722;28;20390;-70
2022/06/19 11:58:34;;;;;;;8.15;4.53;;;25.20;55.40;;;;;;5070041;28;20886;-69
2022/06/19 12:01:13;;;;;;;7.93;4.70;;;25.10;55.10;;;;;;5071435;28;20458;-65
2022/06/19 12:03:47;;;;;;;6.93;4.32;;;25.10;55.20;;;;;;5070644;28;20367;-70
2022/06/19 12:06:17;;;;;;;6.40;4.32;;;25.20;55.00;;;;;;5071152;28;20395;-64
2022/06/19 12:08:59;;;;;;;7.13;4.40;;;25.20;55.10;;;;;;5053186;28;20839;-69
2022/06/19 12:11:38;;;;;;;7.18;4.50;;;25.20;55.10;;;;;;5071050;28;20477;-68
2022/06/19 12:14:10;;;;;;;6.97;4.60;;;25.20;55.10;;;;;;5070921;28;20444;-69
2022/06/19 12:16:36;;;;;;;7.45;4.95;;;25.20;55.00;;;;;;5071248;28;20386;-70
2022/06/19 12:19:20;;;;;;;7.03;4.73;;;25.20;55.10;;;;;;5074931;28;20744;-69
2022/06/19 12:22:00;;;;;;;7.22;4.88;;;25.20;54.90;;;;;;5074858;28;20459;-69
2022/06/19 12:24:45;;;;;;;7.25;4.82;;;25.30;55.00;;;;;;5075234;28;20419;-69
2022/06/19 12:27:21;;;;;;;7.40;4.72;;;25.20;55.00;;;;;;5075043;28;20379;-69
2022/06/19 12:29:57;;;;;;;7.20;4.80;;;25.20;54.90;;;;;;5074516;28;20482;-70
2022/06/19 12:32:34;;;;;;;6.95;4.80;;;25.20;54.90;;;;;;5056810;28;20388;-64
2022/06/19 12:35:04;;;;;;;6.35;4.68;;;25.30;54.90;;;;;;5075239;28;20807;-70
2022/06/19 12:37:31;;;;;;;6.53;4.63;;;25.30;54.90;;;;;;5074416;28;20419;-69
2022/06/19 12:39:57;;;;;;;7.25;4.70;;;25.30;55.00;;;;;;5074965;28;20447;-67
2022/06/19 12:42:32;;;;;;;7.20;4.90;;;25.30;54.80;;;;;;5076621;28;20414;-64
2022/06/19 12:45:31;;;;;;;6.38;4.50;;;25.30;54.80;;;;;;5072355;22;20425;-69
2022/06/19 12:48:14;;;;;;;7.73;4.93;;;25.30;54.80;;;;;;5015271;28;20396;-69
2022/06/19 12:50:53;;;;;;;7.07;4.80;;;25.30;54.80;;;;;;4996841;28;20471;-69
2022/06/19 12:53:38;;;;;;;8.02;5.07;;;25.30;54.70;;;;;;4997296;28;20462;-67
2022/06/19 12:56:06;;;;;;;7.25;5.28;;;25.30;54.70;;;;;;5016325;28;20888;-68
2022/06/19 12:58:52;;;;;;;8.43;4.93;;;25.30;54.60;;;;;;4997307;28;20408;-68
2022/06/19 13:01:40;;;;;;;7.93;5.35;;;25.30;54.80;;;;;;5010095;28;20409;-69
2022/06/19 13:04:18;;;;;;;7.88;5.00;;;25.30;54.50;;;;;;4997301;28;20393;-68
2022/06/19 13:06:56;;;;;;;8.52;5.72;;;25.30;54.60;;;;;;4997181;28;20409;-69
2022/06/19 13:09:51;;;;;;;9.50;5.65;;;25.30;54.60;;;;;;5014737;28;20411;-65
2022/06/19 13:12:34;;;;;;;9.03;5.63;;;25.30;54.80;;;;;;5014970;28;20727;-66
2022/06/19 13:15:34;;;;;;;10.88;6.32;;;25.30;54.90;;;;;;4996967;28;20401;-65
2022/06/19 13:18:11;;;;;;;10.40;7.20;;;25.40;54.90;;;;;;4983970;28;20876;-65
2022/06/19 13:21:02;;;;;;;12.50;7.20;;;25.40;54.90;;;;;;5014386;28;20440;-64